createdAt,value
2022-08-03T00:00:40.215Z,52.22
2022-08-03T00:03:09.211Z,52.17
2022-08-03T00:05:38.663Z,52.24
2022-08-03T00:08:07.006Z,52.54
2022-08-03T00:10:35.315Z,51.77
2022-08-03T00:13:05.711Z,51.46
2022-08-03T00:15:34.009Z,51.81
2022-08-03T00:18:02.437Z,51.98
2022-08-03T00:20:30.537Z,52.35
2022-08-03T00:23:06.908Z,52.76
2022-08-03T00:25:36.369Z,53.06
2022-08-03T00:28:06.968Z,53.32
2022-08-03T00:30:37.691Z,53.37
2022-08-03T00:33:05.942Z,53.07
2022-08-03T00:35:50.414Z,53.01
2022-08-03T00:38:19.583Z,53.13
2022-08-03T00:40:48.009Z,53.10
2022-08-03T00:43:17.609Z,53.28
2022-08-03T00:46:23.532Z,53.70
2022-08-03T00:48:52.913Z,53.81
2022-08-03T00:51:23.021Z,53.90
2022-08-03T00:53:52.207Z,53.80
2022-08-03T00:56:21.356Z,53.87
2022-08-03T00:58:55.370Z,53.74
2022-08-03T01:01:23.614Z,54.00
2022-08-03T01:03:51.831Z,53.94
2022-08-03T01:06:27.305Z,53.80
2022-08-03T01:09:04.725Z,53.64
2022-08-03T01:12:01.102Z,53.56
2022-08-03T01:14:35.608Z,53.54
2022-08-03T01:17:12.949Z,53.95
2022-08-03T01:19:50.816Z,53.87
2022-08-03T01:22:51.940Z,54.36
2022-08-03T01:25:36.450Z,54.37
2022-08-03T01:28:21.447Z,54.49
2022-08-03T01:30:54.684Z,54.58
2022-08-03T01:33:27.359Z,54.75
2022-08-03T01:36:01.085Z,55.18
2022-08-03T01:38:33.554Z,54.82
2022-08-03T01:41:07.255Z,55.14
2022-08-03T01:44:26.429Z,55.42
2022-08-03T01:46:27.393Z,55.29
2022-08-03T01:48:57.540Z,55.24
2022-08-03T01:51:58.693Z,54.85
2022-08-03T01:54:14.800Z,55.08
2022-08-03T01:56:46.571Z,55.14
2022-08-03T01:59:17.892Z,55.44
2022-08-03T02:02:29.039Z,55.59
2022-08-03T02:04:40.095Z,55.88
2022-08-03T02:07:10.865Z,55.94
2022-08-03T02:09:40.103Z,55.96
2022-08-03T02:12:10.612Z,56.09
2022-08-03T02:14:40.795Z,56.09
2022-08-03T02:17:11.748Z,56.20
2022-08-03T02:19:40.910Z,56.35
2022-08-03T02:22:12.859Z,56.41
2022-08-03T02:25:08.651Z,56.13
2022-08-03T02:27:43.481Z,56.24
2022-08-03T02:30:13.794Z,56.32
2022-08-03T02:32:49.986Z,56.57
2022-08-03T02:35:21.665Z,56.67
2022-08-03T02:37:53.719Z,57.31
2022-08-03T02:40:24.703Z,57.69
2022-08-03T02:42:56.913Z,58.11
2022-08-03T02:45:25.775Z,58.01
2022-08-03T02:47:59.357Z,57.94
2022-08-03T02:50:28.835Z,57.82
2022-08-03T02:52:59.939Z,57.74
2022-08-03T02:55:30.807Z,57.48
2022-08-03T02:58:01.474Z,56.50
2022-08-03T03:00:30.823Z,55.49
2022-08-03T03:03:02.899Z,55.07
2022-08-03T03:05:53.496Z,55.42
2022-08-03T03:08:28.431Z,55.97
2022-08-03T03:11:00.186Z,56.06
2022-08-03T03:13:37.815Z,55.72
2022-08-03T03:16:14.250Z,56.20
2022-08-03T03:18:45.716Z,56.73
2022-08-03T03:21:15.803Z,56.78
2022-08-03T03:23:47.960Z,56.52
2022-08-03T03:26:17.001Z,56.89
2022-08-03T03:28:45.738Z,57.16
2022-08-03T03:31:14.008Z,57.16
2022-08-03T03:33:43.825Z,57.27
2022-08-03T03:36:13.087Z,57.37
2022-08-03T03:38:41.262Z,57.21
2022-08-03T03:41:09.437Z,57.28
2022-08-03T03:43:37.628Z,57.47
2022-08-03T03:46:13.438Z,57.83
2022-08-03T03:48:44.393Z,57.80
2022-08-03T03:51:12.691Z,57.84
2022-08-03T03:53:40.911Z,57.83
2022-08-03T03:56:09.105Z,57.96
2022-08-03T03:58:37.194Z,57.62
2022-08-03T04:01:08.867Z,57.40
2022-08-03T04:03:47.889Z,57.33
2022-08-03T04:06:42.096Z,57.59
2022-08-03T04:09:34.308Z,57.64
2022-08-03T04:12:04.125Z,57.67
2022-08-03T04:14:36.409Z,57.59
2022-08-03T04:17:06.853Z,57.32
2022-08-03T04:19:50.757Z,57.07
2022-08-03T04:22:25.402Z,56.93
2022-08-03T04:25:01.420Z,56.93
2022-08-03T04:27:34.524Z,56.51
2022-08-03T04:30:05.605Z,56.59
2022-08-03T04:32:34.621Z,56.32
2022-08-03T04:35:04.830Z,55.86
2022-08-03T04:37:43.352Z,55.19
2022-08-03T04:40:15.487Z,54.82
2022-08-03T04:42:45.555Z,54.72
2022-08-03T04:45:16.305Z,54.59
2022-08-03T04:47:44.809Z,54.41
2022-08-03T04:50:19.423Z,54.66
2022-08-03T04:52:49.665Z,55.05
2022-08-03T04:55:27.634Z,50.46
2022-08-03T04:57:55.887Z,46.76
2022-08-03T05:00:24.575Z,43.06
2022-08-03T05:02:53.737Z,39.80
2022-08-03T05:05:23.583Z,37.71
2022-08-03T05:07:53.104Z,36.82
2022-08-03T05:10:23.735Z,35.50
2022-08-03T05:12:53.996Z,34.77
2022-08-03T05:15:23.269Z,33.87
2022-08-03T05:17:51.541Z,33.59
2022-08-03T05:20:20.273Z,33.34
2022-08-03T05:22:50.106Z,32.79
2022-08-03T05:25:19.317Z,32.40
2022-08-03T05:27:49.719Z,31.76
2022-08-03T05:30:30.907Z,31.88
2022-08-03T05:33:03.235Z,31.52
2022-08-03T05:36:02.062Z,31.58
2022-08-03T05:38:23.790Z,33.42
2022-08-03T05:41:20.029Z,35.49
2022-08-03T05:43:45.177Z,36.93
2022-08-03T05:46:13.657Z,38.20
2022-08-03T05:48:42.639Z,39.35
2022-08-03T05:51:12.509Z,40.22
2022-08-03T05:53:42.817Z,41.43
2022-08-03T05:56:13.942Z,42.30
2022-08-03T05:58:43.669Z,42.49
2022-08-03T06:01:12.633Z,43.29
2022-08-03T06:03:41.299Z,43.85
2022-08-03T06:06:09.644Z,44.03
2022-08-03T06:08:38.344Z,44.38
2022-08-03T06:11:08.199Z,44.11
2022-08-03T06:13:36.916Z,43.86
2022-08-03T06:16:05.431Z,44.36
2022-08-03T06:18:33.695Z,44.21
2022-08-03T06:21:14.217Z,44.48
2022-08-03T06:23:53.926Z,44.21
2022-08-03T06:26:29.537Z,44.54
2022-08-03T06:28:58.303Z,44.72
2022-08-03T06:31:32.741Z,44.45
2022-08-03T06:34:32.872Z,44.13
2022-08-03T06:36:53.198Z,44.37
2022-08-03T06:39:23.256Z,44.92
2022-08-03T06:41:54.432Z,44.71
2022-08-03T06:44:22.483Z,45.19
2022-08-03T06:46:51.431Z,45.15
2022-08-03T06:49:20.490Z,45.06
2022-08-03T06:52:05.717Z,44.54
2022-08-03T06:54:37.898Z,44.26
2022-08-03T06:57:09.789Z,44.00
2022-08-03T07:00:10.995Z,44.53
2022-08-03T07:02:28.158Z,44.48
2022-08-03T07:04:56.733Z,44.11
2022-08-03T07:07:24.983Z,43.64
2022-08-03T07:09:56.638Z,43.42
2022-08-03T07:12:29.030Z,43.29
2022-08-03T07:15:01.313Z,43.34
2022-08-03T07:17:31.077Z,43.09
2022-08-03T07:19:59.937Z,43.14
2022-08-03T07:22:28.474Z,43.24
2022-08-03T07:24:57.866Z,43.02
2022-08-03T07:27:29.360Z,42.62
2022-08-03T07:29:58.549Z,42.71
2022-08-03T07:32:28.610Z,42.92
2022-08-03T07:35:00.487Z,42.70
2022-08-03T07:37:29.774Z,42.78
2022-08-03T07:39:58.019Z,43.04
2022-08-03T07:42:27.654Z,42.37
2022-08-03T07:44:56.341Z,42.17
2022-08-03T07:47:34.796Z,42.49
2022-08-03T07:50:05.258Z,42.32
2022-08-03T07:52:52.987Z,41.94
2022-08-03T07:55:23.604Z,41.89
2022-08-03T07:58:03.519Z,41.07
2022-08-03T08:00:32.727Z,40.37
2022-08-03T08:03:01.199Z,40.49
2022-08-03T08:05:30.516Z,40.26
2022-08-03T08:07:58.979Z,39.63
2022-08-03T08:10:27.386Z,39.57
2022-08-03T08:12:56.139Z,38.98
2022-08-03T08:15:26.074Z,38.84
2022-08-03T08:17:56.181Z,38.85
2022-08-03T08:20:27.890Z,39.07
2022-08-03T08:22:58.236Z,39.15
2022-08-03T08:25:29.310Z,38.60
2022-08-03T08:28:25.302Z,38.67
2022-08-03T08:30:47.472Z,38.73
2022-08-03T08:33:22.456Z,38.58
2022-08-03T08:35:51.374Z,38.43
2022-08-03T08:38:19.830Z,37.80
2022-08-03T08:40:49.271Z,37.72
2022-08-03T08:43:17.398Z,37.48
2022-08-03T08:45:51.321Z,37.25
2022-08-03T08:48:24.028Z,37.54
2022-08-03T08:50:55.453Z,37.53
2022-08-03T08:53:27.250Z,36.85
2022-08-03T08:56:01.109Z,36.58
2022-08-03T08:58:32.100Z,36.17
2022-08-03T09:01:01.908Z,36.40
2022-08-03T09:03:31.071Z,37.03
2022-08-03T09:06:02.422Z,36.54
2022-08-03T09:08:31.892Z,37.18
2022-08-03T09:11:04.248Z,37.12
2022-08-03T09:13:34.614Z,36.90
2022-08-03T09:16:15.538Z,36.26
2022-08-03T09:18:45.004Z,35.35
2022-08-03T09:21:37.517Z,35.33
2022-08-03T09:24:16.530Z,34.87
2022-08-03T09:26:54.188Z,35.02
2022-08-03T09:29:23.942Z,34.61
2022-08-03T09:32:03.216Z,34.32
2022-08-03T09:34:32.198Z,34.16
2022-08-03T09:37:00.383Z,33.99
2022-08-03T09:39:41.312Z,33.75
2022-08-03T09:42:14.665Z,33.68
2022-08-03T09:44:44.719Z,33.73
2022-08-03T09:47:16.856Z,33.63
2022-08-03T09:50:02.005Z,33.52
2022-08-03T09:52:39.086Z,33.27
2022-08-03T09:56:30.899Z,33.46
2022-08-03T09:58:10.693Z,33.24
2022-08-03T10:00:55.258Z,33.54
2022-08-03T10:03:26.678Z,33.82
2022-08-03T10:05:59.598Z,33.41
2022-08-03T10:08:28.654Z,33.21
2022-08-03T10:10:58.928Z,33.44
2022-08-03T10:13:27.205Z,33.42
2022-08-03T10:16:23.556Z,33.38
2022-08-03T10:18:46.077Z,33.37
2022-08-03T10:21:17.978Z,33.37
2022-08-03T10:23:47.360Z,33.47
2022-08-03T10:26:20.556Z,33.49
2022-08-03T10:28:51.440Z,33.62
2022-08-03T10:31:21.847Z,33.57
2022-08-03T10:33:57.848Z,33.62
2022-08-03T10:36:28.163Z,33.11
2022-08-03T10:38:57.969Z,32.93
2022-08-03T10:41:28.906Z,33.15
2022-08-03T10:44:00.404Z,33.42
2022-08-03T10:46:30.285Z,33.52
2022-08-03T10:49:01.168Z,33.26
2022-08-03T10:55:03.304Z,34.05
2022-08-03T10:57:49.645Z,33.73
2022-08-03T11:00:19.614Z,34.15
2022-08-03T11:03:14.141Z,34.04
2022-08-03T11:05:47.117Z,33.97
2022-08-03T11:08:29.735Z,34.20
2022-08-03T11:11:01.797Z,34.11
2022-08-03T11:14:02.915Z,34.12
2022-08-03T11:16:33.058Z,33.78
2022-08-03T11:19:04.062Z,33.85
2022-08-03T11:22:01.380Z,33.23
2022-08-03T11:25:01.115Z,32.94
2022-08-03T11:27:32.165Z,33.37
2022-08-03T11:30:04.581Z,33.27
2022-08-03T11:33:03.186Z,33.44
2022-08-03T11:35:34.260Z,33.35
2022-08-03T11:38:11.771Z,33.22
2022-08-03T11:40:43.430Z,32.72
2022-08-03T11:43:34.918Z,32.32
2022-08-03T11:46:06.665Z,32.93
2022-08-03T11:48:37.276Z,33.25
2022-08-03T11:51:07.323Z,32.56
2022-08-03T11:53:42.113Z,32.46
2022-08-03T11:56:12.992Z,32.19
2022-08-03T11:59:11.262Z,32.29
2022-08-03T12:01:39.025Z,32.64
2022-08-03T12:04:08.313Z,32.84
2022-08-03T12:06:55.059Z,32.52
2022-08-03T12:09:24.109Z,32.57
2022-08-03T12:12:00.415Z,32.65
2022-08-03T12:14:48.538Z,32.73
2022-08-03T12:17:19.852Z,32.73
2022-08-03T12:19:49.939Z,32.89
2022-08-03T12:22:18.155Z,32.99
2022-08-03T12:24:47.604Z,33.12
2022-08-03T12:27:24.943Z,33.26
2022-08-03T12:29:57.294Z,32.74
2022-08-03T12:32:29.617Z,32.68
2022-08-03T12:35:01.345Z,32.61
2022-08-03T12:37:30.918Z,32.48
2022-08-03T12:40:09.625Z,32.65
2022-08-03T12:42:40.746Z,32.59
2022-08-03T12:45:22.500Z,32.45
2022-08-03T12:47:57.615Z,32.51
2022-08-03T12:50:27.656Z,32.56
2022-08-03T12:52:56.452Z,32.37
2022-08-03T12:55:25.476Z,32.29
2022-08-03T12:57:53.717Z,31.97
2022-08-03T13:00:29.600Z,32.21
2022-08-03T13:03:38.937Z,32.36
2022-08-03T13:05:54.840Z,32.10
2022-08-03T13:08:27.025Z,32.25
2022-08-03T13:10:55.327Z,31.63
2022-08-03T13:13:41.469Z,31.77
2022-08-03T13:16:09.607Z,31.33
2022-08-03T13:18:49.045Z,30.54
2022-08-03T13:21:18.236Z,30.44
2022-08-03T13:23:47.837Z,30.61
2022-08-03T13:26:16.150Z,30.68
2022-08-03T13:28:44.443Z,30.65
2022-08-03T13:31:12.881Z,31.81
2022-08-03T13:33:41.098Z,32.36
2022-08-03T13:36:10.631Z,32.37
2022-08-03T13:38:38.761Z,32.68
2022-08-03T13:41:07.654Z,32.76
2022-08-03T13:43:36.003Z,32.48
2022-08-03T13:46:04.154Z,32.64
2022-08-03T13:48:35.883Z,32.62
2022-08-03T13:51:11.996Z,32.69
2022-08-03T13:53:52.475Z,32.74
2022-08-03T13:56:20.709Z,32.57
2022-08-03T13:58:49.155Z,33.49
2022-08-03T14:01:18.552Z,33.88
2022-08-03T14:03:54.172Z,34.48
2022-08-03T14:06:22.427Z,34.85
2022-08-03T14:08:52.441Z,35.01
2022-08-03T14:11:21.099Z,35.31
2022-08-03T14:13:51.344Z,35.45
2022-08-03T14:16:19.989Z,35.42
2022-08-03T14:18:49.510Z,35.68
2022-08-03T14:21:19.335Z,36.07
2022-08-03T14:23:47.493Z,36.28
2022-08-03T14:26:18.823Z,36.74
2022-08-03T14:28:47.049Z,36.70
2022-08-03T14:32:09.585Z,36.90
2022-08-03T14:34:04.520Z,37.04
2022-08-03T14:36:33.253Z,37.51
2022-08-03T14:39:01.788Z,37.27
2022-08-03T14:41:31.551Z,37.58
2022-08-03T14:44:00.493Z,37.83
2022-08-03T14:46:30.863Z,37.85
2022-08-03T14:50:31.596Z,37.91
2022-08-03T14:51:51.503Z,37.70
2022-08-03T14:54:22.504Z,37.76
2022-08-03T14:56:53.253Z,38.01
2022-08-03T14:59:21.461Z,37.80
2022-08-03T15:02:02.696Z,37.60
2022-08-03T15:04:34.840Z,37.07
2022-08-03T15:07:03.015Z,36.79
2022-08-03T15:09:31.618Z,36.31
2022-08-03T15:12:01.639Z,35.85
2022-08-03T15:14:33.358Z,35.18
2022-08-03T15:17:03.162Z,35.97
2022-08-03T15:20:01.409Z,36.57
2022-08-03T15:22:20.761Z,37.10
2022-08-03T15:24:56.125Z,37.48
2022-08-03T15:27:25.788Z,37.86
2022-08-03T15:30:05.012Z,38.14
2022-08-03T15:32:37.898Z,38.77
2022-08-03T15:35:06.529Z,39.05
2022-08-03T15:37:34.762Z,39.63
2022-08-03T15:40:04.171Z,40.47
2022-08-03T15:42:37.068Z,41.91
2022-08-03T15:45:06.210Z,42.69
2022-08-03T15:47:34.846Z,42.61
2022-08-03T15:50:07.814Z,43.15
2022-08-03T15:52:37.636Z,42.91
2022-08-03T15:55:06.517Z,43.02
2022-08-03T15:57:35.007Z,44.46
2022-08-03T16:00:33.587Z,46.54
2022-08-03T16:03:02.458Z,48.58
2022-08-03T16:05:31.028Z,52.38
2022-08-03T16:08:03.864Z,53.73
2022-08-03T16:10:33.747Z,55.86
2022-08-03T16:13:02.416Z,56.98
2022-08-03T16:15:32.280Z,58.10
2022-08-03T16:18:06.721Z,56.52
2022-08-03T16:20:35.366Z,54.47
2022-08-03T16:23:10.436Z,55.69
2022-08-03T16:25:39.932Z,54.58
2022-08-03T16:28:13.719Z,54.92
2022-08-03T16:30:45.403Z,53.41
2022-08-03T16:33:16.907Z,53.42
2022-08-03T16:35:46.063Z,53.50
2022-08-03T16:38:18.811Z,53.50
2022-08-03T16:40:51.663Z,53.18
2022-08-03T16:43:21.000Z,53.36
2022-08-03T16:45:51.044Z,53.21
2022-08-03T16:48:19.793Z,53.41
2022-08-03T16:50:48.832Z,52.80
2022-08-03T16:53:33.112Z,52.83
2022-08-03T16:56:05.552Z,52.91
2022-08-03T16:58:41.483Z,53.08
2022-08-03T17:01:21.542Z,52.22
2022-08-03T17:04:01.236Z,52.01
2022-08-03T17:06:34.262Z,51.85
2022-08-03T17:09:03.449Z,50.84
2022-08-03T17:11:32.920Z,50.22
2022-08-03T17:14:01.525Z,50.47
2022-08-03T17:16:33.837Z,49.83
2022-08-03T17:19:08.083Z,49.63
2022-08-03T17:21:43.970Z,49.08
2022-08-03T17:24:26.522Z,48.81
2022-08-03T17:26:57.534Z,48.72
2022-08-03T17:29:29.955Z,48.72
2022-08-03T17:32:06.571Z,47.56
2022-08-03T17:34:38.923Z,46.94
2022-08-03T17:37:17.780Z,47.13
2022-08-03T17:42:44.716Z,48.40
2022-08-03T17:45:18.956Z,48.07
2022-08-03T17:47:57.051Z,47.28
2022-08-03T17:50:30.257Z,47.70
2022-08-03T17:53:07.937Z,48.06
2022-08-03T17:55:58.552Z,48.09
2022-08-03T17:58:39.800Z,47.37
2022-08-03T18:02:06.122Z,47.79
2022-08-03T18:04:29.712Z,47.78
2022-08-03T18:07:11.942Z,48.09
2022-08-03T18:10:03.653Z,48.89
2022-08-03T18:12:45.225Z,50.34
2022-08-03T18:15:22.058Z,52.15
2022-08-03T18:17:55.285Z,53.13
2022-08-03T18:20:41.113Z,54.06
2022-08-03T18:23:24.676Z,54.45
2022-08-03T18:25:58.203Z,55.16
2022-08-03T18:28:29.125Z,55.56
2022-08-03T18:30:58.610Z,55.80
2022-08-03T18:34:19.659Z,55.98
2022-08-03T18:36:22.112Z,56.98
2022-08-03T18:38:59.519Z,56.89
2022-08-03T18:41:32.276Z,57.21
2022-08-03T18:44:08.241Z,57.11
2022-08-03T18:46:49.068Z,57.07
2022-08-03T18:49:29.448Z,56.43
2022-08-03T18:52:05.024Z,55.82
2022-08-03T18:55:02.675Z,55.74
2022-08-03T18:57:46.457Z,55.59
2022-08-03T19:00:17.171Z,56.10
2022-08-03T19:02:58.836Z,56.37
2022-08-03T19:05:53.721Z,56.27
2022-08-03T19:08:26.045Z,56.51
2022-08-03T19:10:57.860Z,56.41
2022-08-03T19:13:50.224Z,57.51
2022-08-03T19:16:22.940Z,58.03
2022-08-03T19:18:55.429Z,58.33
2022-08-03T19:21:24.219Z,58.67
2022-08-03T19:23:55.539Z,59.09
2022-08-03T19:26:30.926Z,59.81
2022-08-03T19:29:17.284Z,59.70
2022-08-03T19:31:58.923Z,59.46
2022-08-03T19:34:30.590Z,59.73
2022-08-03T19:36:59.172Z,60.01
2022-08-03T19:39:31.729Z,60.17
2022-08-03T19:42:16.958Z,60.04
2022-08-03T19:44:53.015Z,60.36
2022-08-03T19:47:29.285Z,60.17
2022-08-03T19:50:06.025Z,60.60
2022-08-03T19:52:42.412Z,60.47
2022-08-03T19:55:12.974Z,60.47
2022-08-03T19:57:45.588Z,60.09
2022-08-03T20:00:15.624Z,59.88
2022-08-03T20:02:43.769Z,60.00
2022-08-03T20:05:15.398Z,59.62
2022-08-03T20:10:34.975Z,59.79
2022-08-03T20:13:03.714Z,60.00
2022-08-03T20:15:32.613Z,60.66
2022-08-03T20:18:16.549Z,60.68
2022-08-03T20:20:49.420Z,60.87
2022-08-03T20:23:20.632Z,60.98
2022-08-03T20:25:59.278Z,61.19
2022-08-03T20:28:32.996Z,60.63
2022-08-03T20:31:01.924Z,60.87
2022-08-03T20:33:46.572Z,61.00
2022-08-03T20:36:18.416Z,61.03
2022-08-03T20:38:48.451Z,61.52
2022-08-03T20:41:19.270Z,62.17
2022-08-03T20:43:51.351Z,62.31
2022-08-03T20:46:31.153Z,62.43
2022-08-03T20:49:05.754Z,62.97
2022-08-03T20:51:50.722Z,62.90
2022-08-03T20:54:29.534Z,63.12
2022-08-03T20:57:03.551Z,63.02
2022-08-03T20:59:47.671Z,63.04
2022-08-03T21:02:29.926Z,63.41
2022-08-03T21:05:03.471Z,63.49
2022-08-03T21:08:03.860Z,63.38
2022-08-03T21:10:33.594Z,63.97
2022-08-03T21:12:54.506Z,47.75
2022-08-03T21:13:10.649Z,59.94
2022-08-03T21:13:17.707Z,64.19
2022-08-03T21:16:12.053Z,64.11
2022-08-03T21:18:41.577Z,62.95
2022-08-03T21:21:14.841Z,61.85
2022-08-03T21:23:49.117Z,61.19
2022-08-03T21:26:18.916Z,60.55
2022-08-03T21:28:49.262Z,59.71
2022-08-03T21:31:24.812Z,59.61
2022-08-03T21:33:56.642Z,59.85
2022-08-03T21:36:26.545Z,60.09
2022-08-03T21:38:57.251Z,59.65
2022-08-03T21:41:26.657Z,59.58
2022-08-03T21:43:56.570Z,59.84
2022-08-03T21:46:25.197Z,59.80
2022-08-03T21:50:05.118Z,60.01
2022-08-03T21:51:47.361Z,60.09
2022-08-03T21:54:16.507Z,60.77
2022-08-03T21:56:48.471Z,61.21
2022-08-03T21:59:20.785Z,61.81
2022-08-03T22:01:51.506Z,62.48
2022-08-03T22:04:50.922Z,62.83
2022-08-03T22:07:12.741Z,62.96
2022-08-03T22:09:50.107Z,62.75
2022-08-03T22:12:22.821Z,62.58
2022-08-03T22:15:08.935Z,62.34
2022-08-03T22:17:55.126Z,61.91
2022-08-03T22:20:25.389Z,61.14
2022-08-03T22:22:57.118Z,61.11
2022-08-03T22:25:30.785Z,61.27
2022-08-03T22:28:01.234Z,61.00
2022-08-03T22:30:31.760Z,60.46
2022-08-03T22:33:01.543Z,60.71
2022-08-03T22:35:32.465Z,60.29
2022-08-03T22:38:14.589Z,59.63
2022-08-03T22:40:42.869Z,60.11
2022-08-03T22:43:11.063Z,60.48
2022-08-03T22:46:09.554Z,61.18
2022-08-03T22:48:41.168Z,61.46
2022-08-03T22:51:11.148Z,62.36
2022-08-03T22:53:41.751Z,62.53
2022-08-03T22:56:09.975Z,63.02
2022-08-03T22:58:38.229Z,63.26
2022-08-03T23:01:09.627Z,63.43
2022-08-03T23:04:00.128Z,63.66
2022-08-03T23:06:34.799Z,63.80
2022-08-03T23:09:06.932Z,64.01
2022-08-03T23:11:38.334Z,64.26
2022-08-03T23:14:16.388Z,64.38
2022-08-03T23:16:47.444Z,64.34
2022-08-03T23:19:25.620Z,63.92
2022-08-03T23:22:02.268Z,64.21
2022-08-03T23:24:31.817Z,63.90
2022-08-03T23:27:00.338Z,63.94
2022-08-03T23:29:31.569Z,64.00
2022-08-03T23:32:02.735Z,64.38
2022-08-03T23:34:50.634Z,64.38
2022-08-03T23:37:20.295Z,64.82
2022-08-03T23:39:49.898Z,65.17
2022-08-03T23:42:20.512Z,64.66
2022-08-03T23:44:53.132Z,63.56
2022-08-03T23:47:23.056Z,63.13
2022-08-03T23:49:51.850Z,62.21
2022-08-03T23:52:29.178Z,62.98
2022-08-03T23:55:17.994Z,63.76
2022-08-03T23:58:02.557Z,65.00
